sensor_id;sensor_type;location;lat;lon;timestamp;temperature;humidity
18229;DHT22;9239;50.932;3.142;2022-11-24T00:00:15;8.80;99.90
18229;DHT22;9239;50.932;3.142;2022-11-24T00:02:41;8.80;99.90
18229;DHT22;9239;50.932;3.142;2022-11-24T00:05:08;8.80;99.90
18229;DHT22;9239;50.932;3.142;2022-11-24T00:07:35;8.90;99.90
18229;DHT22;9239;50.932;3.142;2022-11-24T00:10:03;8.90;99.90
18229;DHT22;9239;50.932;3.142;2022-11-24T00:12:30;9.00;99.90
18229;DHT22;9239;50.932;3.142;2022-11-24T00:14:58;9.00;99.90
18229;DHT22;9239;50.932;3.142;2022-11-24T00:17:25;9.00;99.90
18229;DHT22;9239;50.932;3.142;2022-11-24T00:19:53;9.00;99.90
18229;DHT22;9239;50.932;3.142;2022-11-24T00:22:20;9.00;99.90
18229;DHT22;9239;50.932;3.142;2022-11-24T00:24:47;9.00;99.90
18229;DHT22;9239;50.932;3.142;2022-11-24T00:27:14;9.00;99.90
18229;DHT22;9239;50.932;3.142;2022-11-24T00:29:41;9.00;99.90
18229;DHT22;9239;50.932;3.142;2022-11-24T00:32:09;9.00;99.90
18229;DHT22;9239;50.932;3.142;2022-11-24T00:34:36;9.00;99.90
18229;DHT22;9239;50.932;3.142;2022-11-24T00:37:03;9.00;99.90
18229;DHT22;9239;50.932;3.142;2022-11-24T00:39:29;9.00;99.90
18229;DHT22;9239;50.932;3.142;2022-11-24T00:41:56;9.00;99.90
18229;DHT22;9239;50.932;3.142;2022-11-24T00:44:23;9.10;99.90
18229;DHT22;9239;50.932;3.142;2022-11-24T00:46:50;9.10;99.90
18229;DHT22;9239;50.932;3.142;2022-11-24T00:49:18;9.10;99.90
18229;DHT22;9239;50.932;3.142;2022-11-24T00:51:45;9.10;99.90
18229;DHT22;9239;50.932;3.142;2022-11-24T00:54:12;9.10;99.90
18229;DHT22;9239;50.932;3.142;2022-11-24T00:56:38;9.10;99.90
18229;DHT22;9239;50.932;3.142;2022-11-24T00:59:05;9.10;99.90
18229;DHT22;9239;50.932;3.142;2022-11-24T01:01:32;9.10;99.90
18229;DHT22;9239;50.932;3.142;2022-11-24T01:03:59;9.10;99.90
18229;DHT22;9239;50.932;3.142;2022-11-24T01:06:29;9.10;99.90
18229;DHT22;9239;50.932;3.142;2022-11-24T01:08:57;9.20;99.90
18229;DHT22;9239;50.932;3.142;2022-11-24T01:11:26;9.20;99.90
18229;DHT22;9239;50.932;3.142;2022-11-24T01:13:55;9.10;99.90
18229;DHT22;9239;50.932;3.142;2022-11-24T01:16:24;9.10;99.90
18229;DHT22;9239;50.932;3.142;2022-11-24T01:18:52;9.10;99.90
18229;DHT22;9239;50.932;3.142;2022-11-24T01:21:19;9.10;99.90
18229;DHT22;9239;50.932;3.142;2022-11-24T01:23:48;9.00;99.90
18229;DHT22;9239;50.932;3.142;2022-11-24T01:26:16;9.00;99.90
18229;DHT22;9239;50.932;3.142;2022-11-24T01:28:44;8.90;99.90
18229;DHT22;9239;50.932;3.142;2022-11-24T01:31:11;8.90;99.90
18229;DHT22;9239;50.932;3.142;2022-11-24T01:33:38;8.80;99.90
18229;DHT22;9239;50.932;3.142;2022-11-24T01:36:05;8.70;99.90
18229;DHT22;9239;50.932;3.142;2022-11-24T01:38:32;8.60;99.90
18229;DHT22;9239;50.932;3.142;2022-11-24T01:41:02;8.40;99.90
18229;DHT22;9239;50.932;3.142;2022-11-24T01:43:29;8.20;99.90
18229;DHT22;9239;50.932;3.142;2022-11-24T01:45:59;8.10;99.90
18229;DHT22;9239;50.932;3.142;2022-11-24T01:48:31;8.00;99.90
18229;DHT22;9239;50.932;3.142;2022-11-24T01:51:05;8.00;99.90
18229;DHT22;9239;50.932;3.142;2022-11-24T01:53:33;7.90;99.90
18229;DHT22;9239;50.932;3.142;2022-11-24T01:56:01;7.90;99.90
18229;DHT22;9239;50.932;3.142;2022-11-24T01:58:31;7.80;99.90
18229;DHT22;9239;50.932;3.142;2022-11-24T02:00:59;7.80;99.90
18229;DHT22;9239;50.932;3.142;2022-11-24T02:03:27;7.80;99.90
18229;DHT22;9239;50.932;3.142;2022-11-24T02:05:59;7.80;99.90
18229;DHT22;9239;50.932;3.142;2022-11-24T02:08:31;7.80;99.90
18229;DHT22;9239;50.932;3.142;2022-11-24T02:11:02;7.90;99.90
18229;DHT22;9239;50.932;3.142;2022-11-24T02:13:30;7.90;99.90
18229;DHT22;9239;50.932;3.142;2022-11-24T02:15:57;7.80;99.90
18229;DHT22;9239;50.932;3.142;2022-11-24T02:18:25;7.80;99.90
18229;DHT22;9239;50.932;3.142;2022-11-24T02:20:51;7.80;99.90
18229;DHT22;9239;50.932;3.142;2022-11-24T02:23:23;7.80;99.90
18229;DHT22;9239;50.932;3.142;2022-11-24T02:25:58;7.80;99.90
18229;DHT22;9239;50.932;3.142;2022-11-24T02:28:31;7.80;99.90
18229;DHT22;9239;50.932;3.142;2022-11-24T02:30:59;7.80;99.90
18229;DHT22;9239;50.932;3.142;2022-11-24T02:33:26;7.80;99.90
18229;DHT22;9239;50.932;3.142;2022-11-24T02:35:53;7.80;99.90
18229;DHT22;9239;50.932;3.142;2022-11-24T02:38:28;7.80;99.90
18229;DHT22;9239;50.932;3.142;2022-11-24T02:40:56;7.80;99.90
18229;DHT22;9239;50.932;3.142;2022-11-24T02:43:24;7.80;99.90
18229;DHT22;9239;50.932;3.142;2022-11-24T02:45:55;7.80;99.90
18229;DHT22;9239;50.932;3.142;2022-11-24T02:48:22;7.80;99.90
18229;DHT22;9239;50.932;3.142;2022-11-24T02:50:49;7.80;99.90
18229;DHT22;9239;50.932;3.142;2022-11-24T02:53:16;7.80;99.90
18229;DHT22;9239;50.932;3.142;2022-11-24T02:55:43;7.80;99.90
18229;DHT22;9239;50.932;3.142;2022-11-24T02:58:09;7.90;99.90
18229;DHT22;9239;50.932;3.142;2022-11-24T03:00:36;7.90;99.90
18229;DHT22;9239;50.932;3.142;2022-11-24T03:03:05;8.00;99.90
18229;DHT22;9239;50.932;3.142;2022-11-24T03:05:31;8.00;99.90
18229;DHT22;9239;50.932;3.142;2022-11-24T03:07:58;8.00;99.90
18229;DHT22;9239;50.932;3.142;2022-11-24T03:10:25;8.00;99.90
18229;DHT22;9239;50.932;3.142;2022-11-24T03:12:53;7.90;99.90
18229;DHT22;9239;50.932;3.142;2022-11-24T03:15:20;8.00;99.90
18229;DHT22;9239;50.932;3.142;2022-11-24T03:17:48;8.00;99.90
18229;DHT22;9239;50.932;3.142;2022-11-24T03:20:16;7.90;99.90
18229;DHT22;9239;50.932;3.142;2022-11-24T03:22:43;7.90;99.90
18229;DHT22;9239;50.932;3.142;2022-11-24T03:25:10;7.90;99.90
18229;DHT22;9239;50.932;3.142;2022-11-24T03:27:37;7.90;99.90
18229;DHT22;9239;50.932;3.142;2022-11-24T03:30:04;7.90;99.90
18229;DHT22;9239;50.932;3.142;2022-11-24T03:32:31;7.90;99.90
18229;DHT22;9239;50.932;3.142;2022-11-24T03:34:59;7.80;99.90
18229;DHT22;9239;50.932;3.142;2022-11-24T03:37:27;7.80;99.90
18229;DHT22;9239;50.932;3.142;2022-11-24T03:39:54;7.80;99.90
18229;DHT22;9239;50.932;3.142;2022-11-24T03:42:21;7.70;99.90
18229;DHT22;9239;50.932;3.142;2022-11-24T03:44:48;7.70;99.90
18229;DHT22;9239;50.932;3.142;2022-11-24T03:47:15;7.70;99.90
18229;DHT22;9239;50.932;3.142;2022-11-24T03:49:41;7.80;99.90
18229;DHT22;9239;50.932;3.142;2022-11-24T03:52:08;7.70;99.90
18229;DHT22;9239;50.932;3.142;2022-11-24T03:54:36;7.70;99.90
18229;DHT22;9239;50.932;3.142;2022-11-24T03:57:03;7.70;99.90
18229;DHT22;9239;50.932;3.142;2022-11-24T03:59:30;7.70;99.90
18229;DHT22;9239;50.932;3.142;2022-11-24T04:01:57;7.70;99.90
18229;DHT22;9239;50.932;3.142;2022-11-24T04:04:24;7.70;99.90
18229;DHT22;9239;50.932;3.142;2022-11-24T04:06:51;7.60;99.90
18229;DHT22;9239;50.932;3.142;2022-11-24T04:09:17;7.60;99.90
18229;DHT22;9239;50.932;3.142;2022-11-24T04:11:46;7.60;99.90
18229;DHT22;9239;50.932;3.142;2022-11-24T04:14:30;7.60;99.90
18229;DHT22;9239;50.932;3.142;2022-11-24T04:16:57;7.60;99.90
18229;DHT22;9239;50.932;3.142;2022-11-24T04:19:24;7.60;99.90
18229;DHT22;9239;50.932;3.142;2022-11-24T04:21:50;7.60;99.90
18229;DHT22;9239;50.932;3.142;2022-11-24T04:24:17;7.60;99.90
18229;DHT22;9239;50.932;3.142;2022-11-24T04:26:45;7.60;99.90
18229;DHT22;9239;50.932;3.142;2022-11-24T04:29:12;7.50;99.90
18229;DHT22;9239;50.932;3.142;2022-11-24T04:31:39;7.50;99.90
18229;DHT22;9239;50.932;3.142;2022-11-24T04:34:06;7.50;99.90
18229;DHT22;9239;50.932;3.142;2022-11-24T04:36:33;7.50;99.90
18229;DHT22;9239;50.932;3.142;2022-11-24T04:38:59;7.50;99.90
18229;DHT22;9239;50.932;3.142;2022-11-24T04:41:26;7.50;99.90
18229;DHT22;9239;50.932;3.142;2022-11-24T04:43:54;7.50;99.90
18229;DHT22;9239;50.932;3.142;2022-11-24T04:46:21;7.50;99.90
18229;DHT22;9239;50.932;3.142;2022-11-24T04:48:48;7.50;99.90
18229;DHT22;9239;50.932;3.142;2022-11-24T04:51:15;7.40;99.90
18229;DHT22;9239;50.932;3.142;2022-11-24T04:53:41;7.40;99.90
18229;DHT22;9239;50.932;3.142;2022-11-24T04:56:09;7.30;99.90
18229;DHT22;9239;50.932;3.142;2022-11-24T04:58:35;7.30;99.90
18229;DHT22;9239;50.932;3.142;2022-11-24T05:01:07;7.30;99.90
18229;DHT22;9239;50.932;3.142;2022-11-24T05:03:34;7.30;99.90
18229;DHT22;9239;50.932;3.142;2022-11-24T05:06:01;7.30;99.90
18229;DHT22;9239;50.932;3.142;2022-11-24T05:08:28;7.30;99.90
18229;DHT22;9239;50.932;3.142;2022-11-24T05:10:55;7.20;99.90
18229;DHT22;9239;50.932;3.142;2022-11-24T05:13:21;7.20;99.90
18229;DHT22;9239;50.932;3.142;2022-11-24T05:15:48;7.20;99.90
18229;DHT22;9239;50.932;3.142;2022-11-24T05:18:17;7.20;99.90
18229;DHT22;9239;50.932;3.142;2022-11-24T05:20:43;7.20;99.90
18229;DHT22;9239;50.932;3.142;2022-11-24T05:23:11;7.20;99.90
18229;DHT22;9239;50.932;3.142;2022-11-24T05:25:37;7.20;99.90
18229;DHT22;9239;50.932;3.142;2022-11-24T05:28:06;7.10;99.90
18229;DHT22;9239;50.932;3.142;2022-11-24T05:30:36;7.10;99.90
18229;DHT22;9239;50.932;3.142;2022-11-24T05:33:04;7.10;99.90
18229;DHT22;9239;50.932;3.142;2022-11-24T05:35:33;7.10;99.90
18229;DHT22;9239;50.932;3.142;2022-11-24T05:38:01;7.10;99.90
18229;DHT22;9239;50.932;3.142;2022-11-24T05:40:28;7.10;99.90
18229;DHT22;9239;50.932;3.142;2022-11-24T05:42:55;7.10;99.90
18229;DHT22;9239;50.932;3.142;2022-11-24T05:45:22;7.10;99.90
18229;DHT22;9239;50.932;3.142;2022-11-24T05:47:49;7.10;99.90
18229;DHT22;9239;50.932;3.142;2022-11-24T05:50:17;7.10;99.90
18229;DHT22;9239;50.932;3.142;2022-11-24T05:52:46;7.10;99.90
18229;DHT22;9239;50.932;3.142;2022-11-24T05:55:13;7.10;99.90
18229;DHT22;9239;50.932;3.142;2022-11-24T05:57:40;7.10;99.90
18229;DHT22;9239;50.932;3.142;2022-11-24T06:00:09;7.10;99.90
18229;DHT22;9239;50.932;3.142;2022-11-24T06:02:36;7.10;99.90
18229;DHT22;9239;50.932;3.142;2022-11-24T06:05:03;7.10;99.90
18229;DHT22;9239;50.932;3.142;2022-11-24T06:07:30;7.10;99.90
18229;DHT22;9239;50.932;3.142;2022-11-24T06:09:59;7.10;99.90
18229;DHT22;9239;50.932;3.142;2022-11-24T06:12:25;7.10;99.90
18229;DHT22;9239;50.932;3.142;2022-11-24T06:14:52;7.00;99.90
18229;DHT22;9239;50.932;3.142;2022-11-24T06:17:19;7.00;99.90
18229;DHT22;9239;50.932;3.142;2022-11-24T06:19:46;7.00;99.90
18229;DHT22;9239;50.932;3.142;2022-11-24T06:22:14;7.00;99.90
18229;DHT22;9239;50.932;3.142;2022-11-24T06:24:42;7.00;99.90
18229;DHT22;9239;50.932;3.142;2022-11-24T06:27:10;7.00;99.90
18229;DHT22;9239;50.932;3.142;2022-11-24T06:29:38;7.00;99.90
18229;DHT22;9239;50.932;3.142;2022-11-24T06:32:05;6.90;99.90
18229;DHT22;9239;50.932;3.142;2022-11-24T06:34:32;6.90;99.90
18229;DHT22;9239;50.932;3.142;2022-11-24T06:36:59;6.90;99.90
18229;DHT22;9239;50.932;3.142;2022-11-24T06:39:25;6.80;99.90
18229;DHT22;9239;50.932;3.142;2022-11-24T06:41:52;6.80;99.90
18229;DHT22;9239;50.932;3.142;2022-11-24T06:44:21;6.80;99.90
18229;DHT22;9239;50.932;3.142;2022-11-24T06:46:48;6.80;99.90
18229;DHT22;9239;50.932;3.142;2022-11-24T06:49:15;6.70;99.90
18229;DHT22;9239;50.932;3.142;2022-11-24T06:51:41;6.70;99.90
18229;DHT22;9239;50.932;3.142;2022-11-24T06:54:09;6.70;99.90
18229;DHT22;9239;50.932;3.142;2022-11-24T06:56:38;6.80;99.90
18229;DHT22;9239;50.932;3.142;2022-11-24T06:59:05;6.80;99.90
18229;DHT22;9239;50.932;3.142;2022-11-24T07:01:34;6.90;99.90
18229;DHT22;9239;50.932;3.142;2022-11-24T07:04:03;6.80;99.90
18229;DHT22;9239;50.932;3.142;2022-11-24T07:06:30;7.00;99.90
18229;DHT22;9239;50.932;3.142;2022-11-24T07:08:57;6.90;99.90
18229;DHT22;9239;50.932;3.142;2022-11-24T07:11:24;6.90;99.90
18229;DHT22;9239;50.932;3.142;2022-11-24T07:13:50;6.90;99.90
18229;DHT22;9239;50.932;3.142;2022-11-24T07:16:19;6.90;99.90
18229;DHT22;9239;50.932;3.142;2022-11-24T07:18:49;6.90;99.90
18229;DHT22;9239;50.932;3.142;2022-11-24T07:21:17;6.80;99.90
18229;DHT22;9239;50.932;3.142;2022-11-24T07:23:47;6.80;99.90
18229;DHT22;9239;50.932;3.142;2022-11-24T07:26:14;6.90;99.90
18229;DHT22;9239;50.932;3.142;2022-11-24T07:28:41;6.90;99.90
18229;DHT22;9239;50.932;3.142;2022-11-24T07:31:09;7.00;99.90
18229;DHT22;9239;50.932;3.142;2022-11-24T07:33:37;7.00;99.90
18229;DHT22;9239;50.932;3.142;2022-11-24T07:36:06;7.00;99.90
18229;DHT22;9239;50.932;3.142;2022-11-24T07:38:34;7.10;99.90
18229;DHT22;9239;50.932;3.142;2022-11-24T07:41:02;7.10;99.90
18229;DHT22;9239;50.932;3.142;2022-11-24T07:43:30;7.10;99.90
18229;DHT22;9239;50.932;3.142;2022-11-24T07:45:57;7.10;99.90
18229;DHT22;9239;50.932;3.142;2022-11-24T07:48:24;7.10;99.90
18229;DHT22;9239;50.932;3.142;2022-11-24T07:50:51;7.10;99.90
18229;DHT22;9239;50.932;3.142;2022-11-24T07:53:19;7.10;99.90
18229;DHT22;9239;50.932;3.142;2022-11-24T07:55:52;7.20;99.90
18229;DHT22;9239;50.932;3.142;2022-11-24T07:58:20;7.20;99.90
18229;DHT22;9239;50.932;3.142;2022-11-24T08:00:46;7.20;99.90
18229;DHT22;9239;50.932;3.142;2022-11-24T08:03:14;7.20;99.90
18229;DHT22;9239;50.932;3.142;2022-11-24T08:05:40;7.20;99.90
18229;DHT22;9239;50.932;3.142;2022-11-24T08:08:07;7.30;99.90
18229;DHT22;9239;50.932;3.142;2022-11-24T08:10:35;7.30;99.90
18229;DHT22;9239;50.932;3.142;2022-11-24T08:13:02;7.30;99.90
18229;DHT22;9239;50.932;3.142;2022-11-24T08:15:29;7.30;99.90
18229;DHT22;9239;50.932;3.142;2022-11-24T08:17:59;7.30;99.90
18229;DHT22;9239;50.932;3.142;2022-11-24T08:20:26;7.40;99.90
18229;DHT22;9239;50.932;3.142;2022-11-24T08:22:56;7.40;99.90
18229;DHT22;9239;50.932;3.142;2022-11-24T08:25:23;7.50;99.90
18229;DHT22;9239;50.932;3.142;2022-11-24T08:27:52;7.50;99.90
18229;DHT22;9239;50.932;3.142;2022-11-24T08:30:19;7.60;99.90
18229;DHT22;9239;50.932;3.142;2022-11-24T08:32:46;7.60;99.90
18229;DHT22;9239;50.932;3.142;2022-11-24T08:35:13;7.60;99.90
18229;DHT22;9239;50.932;3.142;2022-11-24T08:37:40;7.60;99.90
18229;DHT22;9239;50.932;3.142;2022-11-24T08:40:07;7.60;99.90
18229;DHT22;9239;50.932;3.142;2022-11-24T08:42:35;7.60;99.90
18229;DHT22;9239;50.932;3.142;2022-11-24T08:45:03;7.60;99.90
18229;DHT22;9239;50.932;3.142;2022-11-24T08:47:30;7.70;99.90
18229;DHT22;9239;50.932;3.142;2022-11-24T08:49:57;7.70;99.90
18229;DHT22;9239;50.932;3.142;2022-11-24T08:52:24;7.70;99.90
18229;DHT22;9239;50.932;3.142;2022-11-24T08:54:50;7.80;99.90
18229;DHT22;9239;50.932;3.142;2022-11-24T08:57:18;7.80;99.90
18229;DHT22;9239;50.932;3.142;2022-11-24T08:59:45;7.90;99.90
18229;DHT22;9239;50.932;3.142;2022-11-24T09:02:13;8.00;99.90
18229;DHT22;9239;50.932;3.142;2022-11-24T09:04:40;8.00;99.90
18229;DHT22;9239;50.932;3.142;2022-11-24T09:07:07;8.10;99.90
18229;DHT22;9239;50.932;3.142;2022-11-24T09:09:34;8.10;99.90
18229;DHT22;9239;50.932;3.142;2022-11-24T09:12:01;8.20;99.90
18229;DHT22;9239;50.932;3.142;2022-11-24T09:14:28;8.30;99.90
18229;DHT22;9239;50.932;3.142;2022-11-24T09:16:55;8.30;99.90
18229;DHT22;9239;50.932;3.142;2022-11-24T09:19:23;8.40;99.90
18229;DHT22;9239;50.932;3.142;2022-11-24T09:21:50;8.40;99.90
18229;DHT22;9239;50.932;3.142;2022-11-24T09:24:17;8.50;99.90
18229;DHT22;9239;50.932;3.142;2022-11-24T09:26:43;8.50;99.90
18229;DHT22;9239;50.932;3.142;2022-11-24T09:29:10;8.60;99.90
18229;DHT22;9239;50.932;3.142;2022-11-24T09:31:38;8.60;99.90
18229;DHT22;9239;50.932;3.142;2022-11-24T09:34:07;8.60;99.90
18229;DHT22;9239;50.932;3.142;2022-11-24T09:36:35;8.70;99.90
18229;DHT22;9239;50.932;3.142;2022-11-24T09:39:02;8.80;99.90
18229;DHT22;9239;50.932;3.142;2022-11-24T09:41:37;8.80;99.90
18229;DHT22;9239;50.932;3.142;2022-11-24T09:44:17;8.90;99.90
18229;DHT22;9239;50.932;3.142;2022-11-24T09:46:56;8.90;99.90
18229;DHT22;9239;50.932;3.142;2022-11-24T09:49:33;9.00;99.90
18229;DHT22;9239;50.932;3.142;2022-11-24T09:52:09;9.10;99.90
18229;DHT22;9239;50.932;3.142;2022-11-24T09:54:44;9.20;99.90
18229;DHT22;9239;50.932;3.142;2022-11-24T09:57:14;9.20;99.90
18229;DHT22;9239;50.932;3.142;2022-11-24T09:59:43;9.30;99.90
18229;DHT22;9239;50.932;3.142;2022-11-24T10:02:11;9.40;99.90
18229;DHT22;9239;50.932;3.142;2022-11-24T10:04:40;9.40;99.90
18229;DHT22;9239;50.932;3.142;2022-11-24T10:07:17;9.50;99.90
18229;DHT22;9239;50.932;3.142;2022-11-24T10:09:51;9.60;99.90
18229;DHT22;9239;50.932;3.142;2022-11-24T10:12:30;9.60;99.90
18229;DHT22;9239;50.932;3.142;2022-11-24T10:15:12;9.70;99.90
18229;DHT22;9239;50.932;3.142;2022-11-24T10:18:08;9.70;99.90
18229;DHT22;9239;50.932;3.142;2022-11-24T10:20:47;9.70;99.90
18229;DHT22;9239;50.932;3.142;2022-11-24T10:23:35;9.80;99.90
18229;DHT22;9239;50.932;3.142;2022-11-24T10:26:15;9.90;99.90
18229;DHT22;9239;50.932;3.142;2022-11-24T10:28:47;9.90;99.90
18229;DHT22;9239;50.932;3.142;2022-11-24T10:31:22;10.00;99.90
18229;DHT22;9239;50.932;3.142;2022-11-24T10:33:50;10.00;99.90
18229;DHT22;9239;50.932;3.142;2022-11-24T10:36:20;10.10;99.90
18229;DHT22;9239;50.932;3.142;2022-11-24T10:38:57;10.10;99.90
18229;DHT22;9239;50.932;3.142;2022-11-24T10:41:37;10.20;99.90
18229;DHT22;9239;50.932;3.142;2022-11-24T10:44:11;10.30;99.90
18229;DHT22;9239;50.932;3.142;2022-11-24T10:46:38;10.30;99.90
18229;DHT22;9239;50.932;3.142;2022-11-24T10:49:05;10.30;99.90
18229;DHT22;9239;50.932;3.142;2022-11-24T10:51:48;10.40;99.90
18229;DHT22;9239;50.932;3.142;2022-11-24T10:54:19;10.50;99.90
18229;DHT22;9239;50.932;3.142;2022-11-24T10:56:49;10.40;99.90
18229;DHT22;9239;50.932;3.142;2022-11-24T11:02:07;10.50;99.90
18229;DHT22;9239;50.932;3.142;2022-11-24T11:04:52;10.60;99.90
18229;DHT22;9239;50.932;3.142;2022-11-24T11:07:20;10.60;99.90
18229;DHT22;9239;50.932;3.142;2022-11-24T11:09:50;10.60;99.90
18229;DHT22;9239;50.932;3.142;2022-11-24T11:12:21;10.70;99.90
18229;DHT22;9239;50.932;3.142;2022-11-24T11:14:49;10.70;99.90
18229;DHT22;9239;50.932;3.142;2022-11-24T11:17:39;10.80;99.90
18229;DHT22;9239;50.932;3.142;2022-11-24T11:20:21;10.80;99.90
18229;DHT22;9239;50.932;3.142;2022-11-24T11:22:49;10.70;99.90
18229;DHT22;9239;50.932;3.142;2022-11-24T11:25:23;10.70;99.90
18229;DHT22;9239;50.932;3.142;2022-11-24T11:27:50;10.70;99.90
18229;DHT22;9239;50.932;3.142;2022-11-24T11:30:20;10.90;99.90
18229;DHT22;9239;50.932;3.142;2022-11-24T11:32:53;10.90;99.90
18229;DHT22;9239;50.932;3.142;2022-11-24T11:35:20;11.00;99.90
18229;DHT22;9239;50.932;3.142;2022-11-24T11:37:48;11.10;99.90
18229;DHT22;9239;50.932;3.142;2022-11-24T11:40:20;11.10;99.90
18229;DHT22;9239;50.932;3.142;2022-11-24T11:42:51;11.10;99.90
18229;DHT22;9239;50.932;3.142;2022-11-24T11:45:23;11.10;99.90
18229;DHT22;9239;50.932;3.142;2022-11-24T11:47:53;11.20;99.90
18229;DHT22;9239;50.932;3.142;2022-11-24T11:50:25;11.20;99.90
18229;DHT22;9239;50.932;3.142;2022-11-24T11:53:01;11.30;99.90
18229;DHT22;9239;50.932;3.142;2022-11-24T11:55:42;11.20;99.90
18229;DHT22;9239;50.932;3.142;2022-11-24T11:58:30;11.30;99.90
18229;DHT22;9239;50.932;3.142;2022-11-24T12:01:09;11.40;99.90
18229;DHT22;9239;50.932;3.142;2022-11-24T12:03:56;11.50;99.90
18229;DHT22;9239;50.932;3.142;2022-11-24T12:06:38;11.50;99.90
18229;DHT22;9239;50.932;3.142;2022-11-24T12:09:17;11.60;99.90
18229;DHT22;9239;50.932;3.142;2022-11-24T12:11:58;11.60;99.90
18229;DHT22;9239;50.932;3.142;2022-11-24T12:14:32;11.50;99.90
18229;DHT22;9239;50.932;3.142;2022-11-24T12:17:07;11.50;99.90
18229;DHT22;9239;50.932;3.142;2022-11-24T12:19:48;11.40;99.90
18229;DHT22;9239;50.932;3.142;2022-11-24T12:22:22;11.40;99.90
18229;DHT22;9239;50.932;3.142;2022-11-24T12:24:55;11.30;99.90
18229;DHT22;9239;50.932;3.142;2022-11-24T12:27:34;11.30;99.90
18229;DHT22;9239;50.932;3.142;2022-11-24T12:30:09;11.20;99.90
18229;DHT22;9239;50.932;3.142;2022-11-24T12:33:12;11.10;99.90
18229;DHT22;9239;50.932;3.142;2022-11-24T12:35:43;11.10;99.90
18229;DHT22;9239;50.932;3.142;2022-11-24T12:38:21;11.10;99.90
18229;DHT22;9239;50.932;3.142;2022-11-24T12:41:15;11.10;99.90
18229;DHT22;9239;50.932;3.142;2022-11-24T12:43:49;11.10;99.90
18229;DHT22;9239;50.932;3.142;2022-11-24T12:46:22;11.10;99.90
18229;DHT22;9239;50.932;3.142;2022-11-24T12:49:01;11.20;99.90
18229;DHT22;9239;50.932;3.142;2022-11-24T12:51:34;11.20;99.90
18229;DHT22;9239;50.932;3.142;2022-11-24T12:54:07;11.30;99.90
18229;DHT22;9239;50.932;3.142;2022-11-24T12:56:41;11.30;99.90
18229;DHT22;9239;50.932;3.142;2022-11-24T12:59:20;11.30;99.90
18229;DHT22;9239;50.932;3.142;2022-11-24T13:01:52;11.40;99.90
18229;DHT22;9239;50.932;3.142;2022-11-24T13:04:30;11.40;99.90
18229;DHT22;9239;50.932;3.142;2022-11-24T13:07:03;11.40;99.90
18229;DHT22;9239;50.932;3.142;2022-11-24T13:09:34;11.40;99.90
18229;DHT22;9239;50.932;3.142;2022-11-24T13:12:07;11.40;99.90
18229;DHT22;9239;50.932;3.142;2022-11-24T13:14:37;11.40;99.90
18229;DHT22;9239;50.932;3.142;2022-11-24T13:17:25;11.40;99.90
18229;DHT22;9239;50.932;3.142;2022-11-24T13:20:13;11.50;99.90
18229;DHT22;9239;50.932;3.142;2022-11-24T13:22:45;11.50;99.90
18229;DHT22;9239;50.932;3.142;2022-11-24T13:25:16;11.50;99.90
18229;DHT22;9239;50.932;3.142;2022-11-24T13:27:46;11.40;99.90
18229;DHT22;9239;50.932;3.142;2022-11-24T13:33:32;11.50;99.90
18229;DHT22;9239;50.932;3.142;2022-11-24T13:36:30;11.40;99.90
18229;DHT22;9239;50.932;3.142;2022-11-24T13:38:58;11.50;99.90
18229;DHT22;9239;50.932;3.142;2022-11-24T13:44:54;11.50;99.90
18229;DHT22;9239;50.932;3.142;2022-11-24T13:47:36;11.60;99.90
18229;DHT22;9239;50.932;3.142;2022-11-24T13:52:56;11.60;99.90
18229;DHT22;9239;50.932;3.142;2022-11-24T13:55:30;11.50;99.90
18229;DHT22;9239;50.932;3.142;2022-11-24T14:01:09;11.50;99.90
18229;DHT22;9239;50.932;3.142;2022-11-24T14:03:41;11.40;99.90
18229;DHT22;9239;50.932;3.142;2022-11-24T14:06:16;11.40;99.90
18229;DHT22;9239;50.932;3.142;2022-11-24T14:08:47;11.30;99.90
18229;DHT22;9239;50.932;3.142;2022-11-24T14:11:16;11.30;99.90
18229;DHT22;9239;50.932;3.142;2022-11-24T14:13:43;11.30;99.90
18229;DHT22;9239;50.932;3.142;2022-11-24T14:16:15;11.20;99.90
18229;DHT22;9239;50.932;3.142;2022-11-24T14:18:44;11.20;99.90
18229;DHT22;9239;50.932;3.142;2022-11-24T14:21:24;11.20;99.90
18229;DHT22;9239;50.932;3.142;2022-11-24T14:23:54;11.10;99.90
18229;DHT22;9239;50.932;3.142;2022-11-24T14:26:23;11.10;99.90
18229;DHT22;9239;50.932;3.142;2022-11-24T14:28:51;11.10;99.90
18229;DHT22;9239;50.932;3.142;2022-11-24T14:31:22;11.10;99.90
18229;DHT22;9239;50.932;3.142;2022-11-24T14:33:49;11.10;99.90
18229;DHT22;9239;50.932;3.142;2022-11-24T14:36:17;11.10;99.90
18229;DHT22;9239;50.932;3.142;2022-11-24T14:38:44;11.10;99.90
18229;DHT22;9239;50.932;3.142;2022-11-24T14:41:21;11.10;99.90
18229;DHT22;9239;50.932;3.142;2022-11-24T14:44:03;11.20;99.90
18229;DHT22;9239;50.932;3.142;2022-11-24T14:46:31;11.20;99.90
18229;DHT22;9239;50.932;3.142;2022-11-24T14:48:58;11.20;99.90
18229;DHT22;9239;50.932;3.142;2022-11-24T14:51:29;11.20;99.90
18229;DHT22;9239;50.932;3.142;2022-11-24T14:53:59;11.20;99.90
18229;DHT22;9239;50.932;3.142;2022-11-24T14:56:28;11.20;99.90
18229;DHT22;9239;50.932;3.142;2022-11-24T14:58:56;11.20;99.90
18229;DHT22;9239;50.932;3.142;2022-11-24T15:01:31;11.20;99.90
18229;DHT22;9239;50.932;3.142;2022-11-24T15:04:12;11.20;99.90
18229;DHT22;9239;50.932;3.142;2022-11-24T15:06:42;11.20;99.90
18229;DHT22;9239;50.932;3.142;2022-11-24T15:09:23;11.20;99.90
18229;DHT22;9239;50.932;3.142;2022-11-24T15:11:51;11.20;99.90
18229;DHT22;9239;50.932;3.142;2022-11-24T15:17:16;11.10;99.90
18229;DHT22;9239;50.932;3.142;2022-11-24T15:19:45;11.10;99.90
18229;DHT22;9239;50.932;3.142;2022-11-24T15:22:35;11.00;99.90
18229;DHT22;9239;50.932;3.142;2022-11-24T15:27:45;11.00;99.90
18229;DHT22;9239;50.932;3.142;2022-11-24T15:30:12;10.90;99.90
18229;DHT22;9239;50.932;3.142;2022-11-24T15:32:47;10.90;99.90
18229;DHT22;9239;50.932;3.142;2022-11-24T15:35:14;10.90;99.90
18229;DHT22;9239;50.932;3.142;2022-11-24T15:37:42;10.90;99.90
18229;DHT22;9239;50.932;3.142;2022-11-24T15:42:37;11.00;99.90
18229;DHT22;9239;50.932;3.142;2022-11-24T15:45:04;10.90;99.90
18229;DHT22;9239;50.932;3.142;2022-11-24T15:47:31;10.90;99.90
18229;DHT22;9239;50.932;3.142;2022-11-24T15:49:58;10.80;99.90
18229;DHT22;9239;50.932;3.142;2022-11-24T15:52:25;10.80;99.90
18229;DHT22;9239;50.932;3.142;2022-11-24T15:54:55;10.70;99.90
18229;DHT22;9239;50.932;3.142;2022-11-24T15:57:22;10.80;99.90
18229;DHT22;9239;50.932;3.142;2022-11-24T15:59:49;10.70;99.90
18229;DHT22;9239;50.932;3.142;2022-11-24T16:02:17;10.60;99.90
18229;DHT22;9239;50.932;3.142;2022-11-24T16:04:46;10.60;99.90
18229;DHT22;9239;50.932;3.142;2022-11-24T16:07:13;10.50;99.90
18229;DHT22;9239;50.932;3.142;2022-11-24T16:09:40;10.50;99.90
18229;DHT22;9239;50.932;3.142;2022-11-24T16:12:08;10.50;99.90
18229;DHT22;9239;50.932;3.142;2022-11-24T16:14:35;10.50;99.90
18229;DHT22;9239;50.932;3.142;2022-11-24T16:17:02;10.50;99.90
18229;DHT22;9239;50.932;3.142;2022-11-24T16:19:29;10.40;99.90
18229;DHT22;9239;50.932;3.142;2022-11-24T16:21:57;10.40;99.90
18229;DHT22;9239;50.932;3.142;2022-11-24T16:24:24;10.40;99.90
18229;DHT22;9239;50.932;3.142;2022-11-24T16:26:51;10.30;99.90
18229;DHT22;9239;50.932;3.142;2022-11-24T16:29:19;10.30;99.90
18229;DHT22;9239;50.932;3.142;2022-11-24T16:31:48;10.30;99.90
18229;DHT22;9239;50.932;3.142;2022-11-24T16:34:16;10.30;99.90
18229;DHT22;9239;50.932;3.142;2022-11-24T16:36:43;10.30;99.90